Time;durP1;ratioP1;P1;durP2;ratioP2;P2;SDS_P1;SDS_P2;PMS_P1;PMS_P2;Temp;Humidity;BMP_temperature;BMP_pressure;BME280_temperature;BME280_humidity;BME280_pressure;Samples;Min_cycle;Max_cycle;Signal;HPM_P1;HPM_P2
2021/11/11 00:01:53;;;;;;;40.53;19.73;;;;;;;-3.33;100.00;102205.86;1815881;79;20982;-75
2021/11/11 00:04:21;;;;;;;40.03;18.87;;;;;;;-3.35;100.00;102204.56;1826030;79;21057;-75
2021/11/11 00:06:50;;;;;;;34.90;17.97;;;;;;;-3.36;100.00;102201.98;1826529;79;21060;-74
2021/11/11 00:09:18;;;;;;;34.33;18.23;;;;;;;-3.37;100.00;102198.90;1822263;79;21045;-75
2021/11/11 00:11:45;;;;;;;35.17;18.43;;;;;;;-3.39;100.00;102195.41;1826417;79;21504;-75
2021/11/11 00:14:11;;;;;;;34.60;17.57;;;;;;;-3.40;100.00;102197.16;1814437;79;21032;-75
2021/11/11 00:16:40;;;;;;;40.40;17.87;;;;;;;-3.40;100.00;102194.52;1822413;79;21042;-74
2021/11/11 00:19:08;;;;;;;38.17;19.27;;;;;;;-3.40;100.00;102198.95;1790187;79;20998;-74
2021/11/11 00:21:37;;;;;;;38.97;18.50;;;;;;;-3.41;100.00;102191.93;1777041;81;21521;-76
2021/11/11 00:24:04;;;;;;;40.93;18.70;;;;;;;-3.41;100.00;102188.83;1769707;81;21053;-74
2021/11/11 00:26:31;;;;;;;37.03;18.33;;;;;;;-3.41;100.00;102182.21;1776509;80;21022;-74
2021/11/11 00:28:58;;;;;;;39.33;18.00;;;;;;;-3.42;100.00;102184.42;1778796;81;21473;-74
2021/11/11 00:31:24;;;;;;;38.87;18.30;;;;;;;-3.42;100.00;102184.42;1782153;80;21512;-76
2021/11/11 00:33:51;;;;;;;38.90;18.73;;;;;;;-3.43;100.00;102185.34;1773470;81;21484;-77
2021/11/11 00:36:19;;;;;;;34.93;17.33;;;;;;;-3.41;100.00;102193.25;1780353;80;21029;-74
2021/11/11 00:38:46;;;;;;;36.20;18.47;;;;;;;-3.39;100.00;102188.80;1784654;80;21037;-75
2021/11/11 00:41:14;;;;;;;39.07;19.27;;;;;;;-3.39;100.00;102186.16;1783284;80;21554;-75
2021/11/11 00:43:41;;;;;;;41.93;18.63;;;;;;;-3.40;100.00;102180.42;1774668;80;20991;-76
2021/11/11 00:46:10;;;;;;;42.57;18.63;;;;;;;-3.42;100.00;102174.30;1770322;80;21054;-74
2021/11/11 00:48:37;;;;;;;34.50;17.37;;;;;;;-3.44;100.00;102172.54;1793170;80;21048;-76
2021/11/11 00:51:03;;;;;;;33.90;16.57;;;;;;;-3.46;100.00;102172.16;1793256;80;20978;-75
2021/11/11 00:53:31;;;;;;;36.83;16.97;;;;;;;-3.47;100.00;102165.11;1792869;80;21069;-75
2021/11/11 00:55:58;;;;;;;30.93;14.67;;;;;;;-3.48;100.00;102160.28;1782660;80;20962;-74
2021/11/11 00:58:26;;;;;;;30.27;15.10;;;;;;;-3.49;100.00;102160.31;1771227;80;21039;-75
2021/11/11 01:00:53;;;;;;;28.50;13.83;;;;;;;-3.50;100.00;102154.62;1780757;81;20990;-74
2021/11/11 01:03:24;;;;;;;27.07;13.53;;;;;;;-3.51;100.00;102146.25;1775806;80;21058;-75
2021/11/11 01:05:49;;;;;;;24.93;12.67;;;;;;;-3.50;100.00;102148.00;1775879;80;21005;-75
2021/11/11 01:08:19;;;;;;;23.63;12.67;;;;;;;-3.49;100.00;102145.77;1776973;81;21504;-75
2021/11/11 01:10:47;;;;;;;25.07;12.90;;;;;;;-3.48;100.00;102140.45;1777727;80;21045;-75
2021/11/11 01:13:15;;;;;;;29.07;14.67;;;;;;;-3.47;100.00;102123.69;1781013;81;21022;-74
2021/11/11 01:15:42;;;;;;;44.33;28.57;;;;;;;-3.47;100.00;102123.69;1776219;80;21042;-75
2021/11/11 01:18:09;;;;;;;55.40;35.10;;;;;;;-3.47;100.00;102126.77;1780506;81;20991;-75
2021/11/11 01:20:37;;;;;;;55.53;33.53;;;;;;;-3.51;100.00;102121.98;1781960;80;21061;-75
2021/11/11 01:23:03;;;;;;;53.83;30.60;;;;;;;-3.53;100.00;102125.58;1778182;80;20986;-73
2021/11/11 01:25:33;;;;;;;55.63;29.03;;;;;;;-3.57;100.00;102122.12;1783784;81;20951;-72
2021/11/11 01:28:00;;;;;;;49.77;27.90;;;;;;;-3.58;100.00;102118.17;1780923;80;21005;-76
2021/11/11 01:30:29;;;;;;;49.00;26.67;;;;;;;-3.62;100.00;102129.27;1718306;83;21026;-75
2021/11/11 01:32:58;;;;;;;46.60;24.43;;;;;;;-3.65;100.00;102130.21;1718425;83;21074;-75
2021/11/11 01:35:25;;;;;;;42.77;23.83;;;;;;;-3.67;100.00;102139.91;1688198;84;21022;-75
2021/11/11 01:37:53;;;;;;;44.40;23.07;;;;;;;-3.67;100.00;102144.34;1685302;85;21034;-74
2021/11/11 01:40:19;;;;;;;41.90;23.67;;;;;;;-3.68;100.00;102142.16;1685008;85;21066;-75
2021/11/11 01:42:57;;;;;;;40.33;23.57;;;;;;;-3.69;100.00;102140.86;1683057;85;21074;-76
2021/11/11 01:45:31;;;;;;;46.20;25.20;;;;;;;-3.70;100.00;102142.64;1630834;88;21046;-75
2021/11/11 01:47:59;;;;;;;51.63;28.73;;;;;;;-3.71;100.00;102136.91;1648932;85;21061;-74
2021/11/11 01:50:28;;;;;;;61.40;32.93;;;;;;;-3.77;100.00;102135.72;1656468;87;21126;-75
2021/11/11 01:52:56;;;;;;;59.90;31.33;;;;;;;-3.84;100.00;102131.45;1627774;87;21035;-74
2021/11/11 01:55:24;;;;;;;59.30;30.50;;;;;;;-3.86;100.00;102129.25;1647511;86;21085;-75
2021/11/11 01:57:54;;;;;;;59.67;31.63;;;;;;;-3.87;100.00;102129.72;1645700;86;21022;-75
2021/11/11 02:00:38;;;;;;;55.90;29.40;;;;;;;-3.90;100.00;102128.89;1630077;87;21040;-74
2021/11/11 02:03:06;;;;;;;61.90;29.53;;;;;;;-3.93;100.00;102140.41;1638761;86;21076;-75
2021/11/11 02:05:38;;;;;;;58.67;31.20;;;;;;;-3.95;100.00;102137.35;1537555;91;21148;-75
2021/11/11 02:08:05;;;;;;;62.80;32.23;;;;;;;-3.97;100.00;102136.52;1568972;89;21593;-74
2021/11/11 02:10:33;;;;;;;62.27;34.50;;;;;;;-4.02;100.00;102125.58;1576692;90;21112;-74
2021/11/11 02:13:02;;;;;;;47.70;26.67;;;;;;;-4.08;100.00;102125.67;1561778;89;21130;-74
2021/11/11 02:15:31;;;;;;;48.43;25.33;;;;;;;-4.10;100.00;102128.80;1565013;91;21093;-75
2021/11/11 02:18:00;;;;;;;43.70;25.10;;;;;;;-4.12;100.00;102125.77;1581645;90;21006;-74
2021/11/11 02:20:31;;;;;;;37.60;21.70;;;;;;;-4.11;100.00;102123.53;1534763;92;21082;-73
2021/11/11 02:23:11;;;;;;;32.63;19.83;;;;;;;-4.08;100.00;102110.27;1554637;90;21091;-76
2021/11/11 02:25:42;;;;;;;33.38;20.50;;;;;;;-4.07;100.00;102112.89;1541290;91;21152;-75
2021/11/11 02:28:12;;;;;;;33.83;20.00;;;;;;;-4.06;100.00;102116.40;1554405;91;21062;-74
2021/11/11 02:30:42;;;;;;;31.97;18.77;;;;;;;-4.03;100.00;102117.67;1577109;91;21077;-74
2021/11/11 02:33:12;;;;;;;30.63;17.67;;;;;;;-4.01;100.00;102125.98;1556316;91;21145;-74
2021/11/11 02:35:39;;;;;;;30.97;17.60;;;;;;;-3.99;100.00;102123.78;1576972;91;21193;-74
2021/11/11 02:38:07;;;;;;;35.43;18.57;;;;;;;-3.99;100.00;102114.07;1582028;90;21069;-75
2021/11/11 02:40:38;;;;;;;35.10;18.50;;;;;;;-3.96;100.00;102118.45;1576658;90;21139;-75
2021/11/11 02:43:06;;;;;;;33.23;18.10;;;;;;;-3.97;100.00;102109.62;1662038;85;21097;-75
2021/11/11 02:45:36;;;;;;;34.50;18.57;;;;;;;-3.99;100.00;102096.89;1682168;84;21032;-75
2021/11/11 02:48:06;;;;;;;38.70;17.37;;;;;;;-3.99;100.00;102095.57;1690762;84;21042;-75
2021/11/11 02:50:35;;;;;;;32.90;16.00;;;;;;;-3.98;100.00;102103.94;1694324;84;21068;-75
2021/11/11 02:53:05;;;;;;;26.17;13.17;;;;;;;-3.99;100.00;102103.95;1679926;84;21005;-74
2021/11/11 02:55:34;;;;;;;25.03;12.97;;;;;;;-3.99;100.00;102102.18;1627281;87;21074;-75
2021/11/11 02:58:02;;;;;;;27.57;13.33;;;;;;;-3.98;100.00;102098.65;1635871;87;21109;-75
2021/11/11 03:00:34;;;;;;;27.83;15.00;;;;;;;-3.94;100.00;102104.75;1632987;87;21052;-75
2021/11/11 03:03:01;;;;;;;33.40;16.93;;;;;;;-3.90;100.00;102112.58;1710987;80;21054;-75
2021/11/11 03:05:31;;;;;;;35.13;17.90;;;;;;;-3.85;100.00;102112.51;1693512;83;21520;-74
2021/11/11 03:08:01;;;;;;;30.67;16.27;;;;;;;-3.82;100.00;102114.64;1706781;83;21134;-75
2021/11/11 03:10:30;;;;;;;31.63;16.37;;;;;;;-3.82;100.00;102112.45;1695508;84;21534;-75
2021/11/11 03:12:59;;;;;;;33.73;16.93;;;;;;;-3.88;100.00;102112.55;1697494;84;21008;-74
2021/11/11 03:15:28;;;;;;;32.80;17.27;;;;;;;-3.94;100.00;102114.86;1710408;83;21076;-75
2021/11/11 03:17:56;;;;;;;34.00;16.70;;;;;;;-3.96;100.00;102115.80;1701721;84;21024;-75
2021/11/11 03:20:23;;;;;;;38.07;18.13;;;;;;;-3.98;100.00;102105.25;1702581;84;21182;-75
2021/11/11 03:22:49;;;;;;;31.77;17.50;;;;;;;-3.97;100.00;102095.55;1727661;82;21064;-75
2021/11/11 03:25:21;;;;;;;33.70;17.47;;;;;;;-3.98;100.00;102104.36;1674708;84;21138;-75
2021/11/11 03:27:51;;;;;;;33.70;16.73;;;;;;;-4.02;100.00;102108.41;1699978;84;21063;-74
2021/11/11 03:30:20;;;;;;;28.07;15.93;;;;;;;-4.05;100.00;102104.95;1694505;85;21102;-75
2021/11/11 03:32:49;;;;;;;26.93;14.43;;;;;;;-4.08;100.00;102099.24;1694358;85;21143;-75
2021/11/11 03:35:16;;;;;;;32.07;15.93;;;;;;;-4.10;100.00;102097.55;1697717;84;21044;-76
2021/11/11 03:37:45;;;;;;;28.70;15.50;;;;;;;-4.11;100.00;102088.72;1694381;84;21144;-75
2021/11/11 03:40:19;;;;;;;30.83;15.17;;;;;;;-4.14;100.00;102077.34;1699564;83;21060;-74
2021/11/11 03:42:48;;;;;;;29.53;15.60;;;;;;;-4.14;100.00;102078.66;1695956;84;21088;-75
2021/11/11 03:45:16;;;;;;;33.97;15.73;;;;;;;-4.12;100.00;102079.53;1694906;84;21043;-75
2021/11/11 03:47:46;;;;;;;41.47;24.60;;;;;;;-4.11;100.00;102075.52;1698656;83;21091;-75
2021/11/11 03:50:14;;;;;;;42.87;25.80;;;;;;;-4.08;100.00;102084.71;1696488;83;21088;-74
2021/11/11 03:52:42;;;;;;;43.93;26.13;;;;;;;-4.06;100.00;102084.23;1712641;82;21065;-77
2021/11/11 03:55:11;;;;;;;45.23;25.07;;;;;;;-4.02;100.00;102079.76;1727806;82;21467;-76
2021/11/11 03:57:39;;;;;;;41.97;22.60;;;;;;;-4.00;100.00;102075.34;1723050;83;21086;-74
2021/11/11 04:00:10;;;;;;;46.10;23.97;;;;;;;-3.98;100.00;102079.25;1723297;83;21023;-76
2021/11/11 04:02:41;;;;;;;39.97;22.83;;;;;;;-3.95;100.00;102077.89;1724685;83;21113;-74
2021/11/11 04:05:10;;;;;;;39.53;22.40;;;;;;;-3.92;100.00;102078.70;1725052;83;21078;-74
2021/11/11 04:07:39;;;;;;;38.97;21.70;;;;;;;-3.92;100.00;102074.73;1729914;80;21007;-74
2021/11/11 04:10:08;;;;;;;37.90;21.60;;;;;;;-3.91;100.00;102070.31;1792833;80;21057;-75
2021/11/11 04:12:35;;;;;;;37.80;21.13;;;;;;;-3.92;100.00;102069.45;1787704;80;21523;-76
2021/11/11 04:15:04;;;;;;;39.83;20.77;;;;;;;-3.94;100.00;102065.11;1793063;80;21068;-75
2021/11/11 04:17:32;;;;;;;33.97;19.23;;;;;;;-3.94;100.00;102069.93;1773440;80;21074;-75
2021/11/11 04:19:59;;;;;;;33.17;18.87;;;;;;;-3.93;100.00;102068.16;1767788;81;21062;-75
2021/11/11 04:22:26;;;;;;;35.27;21.37;;;;;;;-3.94;100.00;102069.93;1766083;81;21023;-75
2021/11/11 04:24:54;;;;;;;39.47;23.63;;;;;;;-3.94;100.00;102068.61;1716817;83;21090;-75
2021/11/11 04:32:26;;;;;;;49.00;24.30;;;;;;;-3.91;100.00;102066.34;1626802;88;21074;-75
2021/11/11 04:34:58;;;;;;;41.97;22.93;;;;;;;-3.92;100.00;102069.45;1627572;88;21099;-74
2021/11/11 04:37:29;;;;;;;44.67;23.83;;;;;;;-3.91;100.00;102063.27;1628648;88;21090;-75
2021/11/11 04:40:22;;;;;;;35.50;20.03;;;;;;;-3.89;100.00;102079.97;1617664;87;21051;-74
2021/11/11 04:42:59;;;;;;;40.03;20.20;;;;;;;-3.86;100.00;102076.39;1622547;88;21098;-74
2021/11/11 05:04:07;;;;;;;29.60;15.10;;;;;;;-3.84;100.00;102093.98;1579316;89;21582;-71
2021/11/11 05:06:33;;;;;;;31.97;15.00;;;;;;;-3.83;100.00;102095.70;1578531;91;21041;-75
2021/11/11 05:09:01;;;;;;;40.47;17.57;;;;;;;-3.80;100.00;102097.90;1579116;90;21084;-75
2021/11/11 05:11:29;;;;;;;39.23;17.60;;;;;;;-3.77;100.00;102104.42;1591837;90;21059;-73
2021/11/11 05:13:57;;;;;;;47.40;20.63;;;;;;;-3.75;100.00;102093.36;1593595;90;21063;-75
2021/11/11 05:16:25;;;;;;;44.57;20.80;;;;;;;-3.72;100.00;102102.57;1592746;90;21004;-74
2021/11/11 05:18:53;;;;;;;46.57;20.13;;;;;;;-3.69;100.00;102104.70;1623374;88;21584;-75
2021/11/11 05:21:21;;;;;;;50.17;22.27;;;;;;;-3.66;100.00;102101.14;1632111;87;21061;-73
2021/11/11 05:23:48;;;;;;;58.07;25.17;;;;;;;-3.57;100.00;102104.06;1632481;87;21123;-73
2021/11/11 05:26:18;;;;;;;85.57;34.07;;;;;;;-3.45;100.00;102095.43;1695730;83;21093;-74
2021/11/11 05:28:45;;;;;;;95.33;37.53;;;;;;;-3.21;100.00;102104.22;1711222;83;21077;-74
2021/11/11 05:31:14;;;;;;;74.07;33.13;;;;;;;-2.99;100.00;102109.48;1726248;83;21006;-75
2021/11/11 05:33:41;;;;;;;51.30;24.30;;;;;;;-2.76;100.00;102097.47;1712786;83;21132;-73
2021/11/11 05:36:09;;;;;;;53.97;23.40;;;;;;;-2.58;100.00;102097.53;1720925;83;21034;-75
2021/11/11 05:38:36;;;;;;;42.50;19.83;;;;;;;-2.48;100.00;102100.34;1708204;83;21027;-75
2021/11/11 05:41:04;;;;;;;38.63;18.07;;;;;;;-2.47;100.00;102091.51;1729576;81;20998;-73
2021/11/11 05:43:31;;;;;;;40.83;19.00;;;;;;;-2.47;100.00;102091.51;1761932;81;21072;-74
2021/11/11 05:45:59;;;;;;;35.00;18.17;;;;;;;-2.47;100.00;102094.63;1758711;81;21005;-73
2021/11/11 05:48:26;;;;;;;38.07;18.40;;;;;;;-2.49;100.00;102086.70;1761756;81;21559;-74
2021/11/11 05:50:53;;;;;;;43.43;21.73;;;;;;;-2.50;100.00;102091.14;1762171;81;20985;-75
2021/11/11 05:53:21;;;;;;;47.77;23.70;;;;;;;-2.52;100.00;102088.09;1754214;81;21019;-74
2021/11/11 05:55:48;;;;;;;35.83;20.30;;;;;;;-2.56;100.00;102078.03;1739408;82;21046;-73
2021/11/11 05:58:16;;;;;;;37.23;20.00;;;;;;;-2.56;100.00;102083.79;1740566;82;21046;-73
2021/11/11 06:00:44;;;;;;;46.10;19.93;;;;;;;-2.62;100.00;102091.44;1739262;82;20959;-74
2021/11/11 06:03:16;;;;;;;35.07;18.07;;;;;;;-2.63;100.00;102083.06;1738059;82;21070;-75
2021/11/11 06:05:44;;;;;;;36.43;18.13;;;;;;;-2.59;100.00;102087.36;1736587;82;21050;-75
2021/11/11 06:08:13;;;;;;;37.57;18.50;;;;;;;-2.57;100.00;102087.33;1746368;82;21078;-72
2021/11/11 06:10:40;;;;;;;32.93;17.50;;;;;;;-2.50;100.00;102092.90;1771560;80;21472;-73
2021/11/11 06:13:07;;;;;;;28.90;15.23;;;;;;;-2.42;100.00;102084.32;1783140;80;21048;-73
2021/11/11 06:15:35;;;;;;;33.23;17.07;;;;;;;-2.35;100.00;102083.26;1774792;80;21005;-74
2021/11/11 06:18:03;;;;;;;27.40;14.37;;;;;;;-2.30;100.00;102081.83;1753439;81;21041;-70
2021/11/11 06:22:59;;;;;;;31.60;15.50;;;;;;;-2.17;100.00;102081.06;1660991;86;21097;-73
2021/11/11 06:25:27;;;;;;;35.03;17.40;;;;;;;-2.07;100.00;102086.98;1651582;86;21063;-74
2021/11/11 06:27:56;;;;;;;30.10;15.67;;;;;;;-1.96;100.00;102075.19;1648783;86;21090;-74
2021/11/11 06:30:24;;;;;;;34.13;17.10;;;;;;;-1.84;100.00;102074.00;1650364;87;21011;-74
2021/11/11 06:32:50;;;;;;;30.83;17.00;;;;;;;-1.77;100.00;102083.97;1650622;87;21062;-72
2021/11/11 06:35:19;;;;;;;36.20;17.83;;;;;;;-1.72;100.00;102077.65;1654616;86;21553;-74
2021/11/11 06:37:46;;;;;;;34.20;18.00;;;;;;;-1.59;100.00;102083.94;1653318;85;21059;-74
2021/11/11 06:40:13;;;;;;;45.83;24.17;;;;;;;-1.48;100.00;102084.50;1651887;85;21038;-75
2021/11/11 06:42:42;;;;;;;47.87;29.43;;;;;;;-1.38;100.00;102080.67;1631476;87;21106;-74
2021/11/11 06:45:13;;;;;;;66.70;40.80;;;;;;;-1.28;100.00;102077.73;1622591;88;21138;-74
2021/11/11 06:47:40;;;;;;;46.00;26.37;;;;;;;-1.16;100.00;102076.91;1629303;87;21135;-73
2021/11/11 06:50:09;;;;;;;45.73;24.93;;;;;;;-1.04;100.00;102072.17;1602376;87;21111;-75
2021/11/11 06:52:36;;;;;;;37.17;20.57;;;;;;;-0.91;100.00;102064.22;1625342;85;21623;-71
2021/11/11 06:55:06;;;;;;;38.70;20.23;;;;;;;-0.78;100.00;102067.35;1682080;85;21039;-74
2021/11/11 06:57:33;;;;;;;35.33;19.53;;;;;;;-0.67;100.00;102060.40;1681436;85;21053;-72
2021/11/11 07:00:04;;;;;;;42.37;20.47;;;;;;;-0.55;100.00;102055.98;1655129;85;21057;-71
2021/11/11 07:02:30;;;;;;;34.73;19.03;;;;;;;-0.35;100.00;102063.32;1637439;86;21408;-71
2021/11/11 07:04:57;;;;;;;31.60;18.17;;;;;;;-0.18;100.00;102061.88;1637129;86;21009;-71
2021/11/11 07:07:24;;;;;;;35.73;18.87;;;;;;;-0.09;100.00;102052.25;1637414;86;21606;-72
2021/11/11 07:09:54;;;;;;;35.93;18.97;;;;;;;-0.08;100.00;102048.67;1637522;88;21104;-72
2021/11/11 07:12:23;;;;;;;39.87;20.20;;;;;;;-0.13;100.00;102045.30;1650727;86;21093;-75
2021/11/11 07:14:50;;;;;;;39.60;21.93;;;;;;;-0.06;100.00;102033.06;1637103;86;21552;-71
2021/11/11 07:17:17;;;;;;;35.90;20.73;;;;;;;0.09;100.00;102045.41;1651054;85;21016;-71
2021/11/11 07:19:46;;;;;;;38.87;20.80;;;;;;;0.26;100.00;102039.02;1656140;82;21014;-72
2021/11/11 07:22:13;;;;;;;35.00;18.33;;;;;;;0.32;100.00;102041.48;1740121;81;21520;-74
2021/11/11 07:24:40;;;;;;;36.90;19.43;;;;;;;0.43;100.00;102032.23;1755558;78;21044;-74
2021/11/11 07:27:07;;;;;;;39.33;21.83;;;;;;;0.52;100.00;102023.90;1758645;81;21074;-71
2021/11/11 07:29:34;;;;;;;40.43;21.77;;;;;;;0.70;100.00;102033.84;1762832;81;21086;-72
2021/11/11 07:32:01;;;;;;;37.63;21.00;;;;;;;0.97;100.00;102023.51;1768572;80;21013;-74
2021/11/11 07:34:28;;;;;;;39.63;21.30;;;;;;;1.19;100.00;102016.40;1792105;80;21030;-73
2021/11/11 07:36:55;;;;;;;36.80;19.93;;;;;;;1.26;100.00;102018.36;1753203;80;21019;-74
2021/11/11 07:39:24;;;;;;;31.37;17.60;;;;;;;1.30;100.00;102015.95;1743645;81;21109;-72
2021/11/11 07:41:51;;;;;;;29.23;16.30;;;;;;;1.36;100.00;102010.36;1745297;81;21046;-74
2021/11/11 07:44:20;;;;;;;29.87;15.33;;;;;;;1.43;100.00;102003.84;1741578;80;21184;-74
2021/11/11 07:46:47;;;;;;;32.40;15.93;;;;;;;1.55;100.00;102009.61;1726972;81;21539;-74
2021/11/11 07:49:13;;;;;;;29.60;15.53;;;;;;;1.57;100.00;101998.41;1744402;82;21022;-71
2021/11/11 07:51:40;;;;;;;21.07;10.80;;;;;;;1.60;100.00;102001.81;1754332;80;21020;-70
2021/11/11 07:54:07;;;;;;;31.37;17.80;;;;;;;1.70;100.00;102004.49;1763567;80;20986;-75
2021/11/11 07:56:37;;;;;;;24.63;13.80;;;;;;;1.76;100.00;101999.83;1745723;82;21014;-75
2021/11/11 07:59:05;;;;;;;29.03;17.97;;;;;;;1.83;100.00;101996.82;1737342;81;21066;-73
2021/11/11 08:01:32;;;;;;;24.40;11.43;;;;;;;1.75;100.00;101991.41;1741834;80;21003;-74
2021/11/11 08:04:01;;;;;;;22.23;11.13;;;;;;;1.85;100.00;102001.62;1746715;80;21551;-72
2021/11/11 08:06:30;;;;;;;34.97;22.70;;;;;;;1.96;100.00;101992.28;1748049;80;20995;-74
2021/11/11 08:08:58;;;;;;;28.27;16.47;;;;;;;2.11;100.00;101998.28;1748626;80;21069;-74
2021/11/11 08:11:26;;;;;;;29.50;18.27;;;;;;;2.30;100.00;102004.11;1747781;80;20998;-73
2021/11/11 08:13:53;;;;;;;49.27;29.53;;;;;;;2.42;100.00;101987.53;1768226;80;20986;-75
2021/11/11 08:16:21;;;;;;;22.33;12.13;;;;;;;2.46;100.00;101995.80;1747077;80;21149;-72
2021/11/11 08:18:48;;;;;;;20.10;9.67;;;;;;;2.35;100.00;101986.94;1755984;81;20983;-76
2021/11/11 08:21:16;;;;;;;25.77;16.37;;;;;;;2.39;100.00;101983.22;1759433;80;21010;-73
2021/11/11 08:23:43;;;;;;;22.23;13.07;;;;;;;2.45;100.00;101983.39;1744098;80;21067;-74
2021/11/11 08:26:10;;;;;;;18.50;11.33;;;;;;;2.64;100.00;101964.72;1763831;80;20986;-73
2021/11/11 08:28:37;;;;;;;38.13;10.90;;;;;;;2.76;100.00;101964.58;1757445;80;21006;-72
2021/11/11 08:31:04;;;;;;;19.40;10.10;;;;;;;2.75;100.00;101965.06;1759352;80;21037;-73
2021/11/11 08:33:30;;;;;;;20.37;8.87;;;;;;;2.59;100.00;101949.38;1768568;80;21069;-73
2021/11/11 08:35:57;;;;;;;22.27;10.30;;;;;;;2.70;100.00;101955.54;1751503;81;20974;-74
2021/11/11 08:38:27;;;;;;;25.90;12.10;;;;;;;2.78;100.00;101950.22;1747586;81;21158;-76
2021/11/11 08:40:55;;;;;;;30.30;15.00;;;;;;;2.83;100.00;101945.97;1757321;80;21061;-75
2021/11/11 08:43:23;;;;;;;27.83;12.13;;;;;;;2.88;100.00;101935.94;1764699;80;20994;-73
2021/11/11 08:45:51;;;;;;;20.00;8.90;;;;;;;2.91;100.00;101937.61;1749228;80;21548;-73
2021/11/11 08:48:18;;;;;;;18.53;8.33;;;;;;;2.98;100.00;101934.55;1764510;81;21053;-73
2021/11/11 08:50:46;;;;;;;20.10;9.50;;;;;;;3.04;100.00;101935.56;1751709;80;20982;-73
2021/11/11 08:53:13;;;;;;;18.17;8.50;;;;;;;2.97;100.00;101939.48;1748329;80;21527;-71
2021/11/11 08:55:41;;;;;;;31.23;18.67;;;;;;;3.00;100.00;101932.66;1760546;80;21362;-73
2021/11/11 08:58:09;;;;;;;27.53;14.00;;;;;;;3.03;100.00;101935.19;1738866;81;21034;-70
2021/11/11 09:00:43;;;;;;;34.03;19.67;;;;;;;3.14;100.00;101933.31;1753444;80;21060;-70
2021/11/11 09:03:12;;;;;;;26.40;12.90;;;;;;;3.21;100.00;101933.88;1748737;81;21065;-74
2021/11/11 09:05:39;;;;;;;23.50;12.07;;;;;;;3.23;100.00;101919.96;1764156;80;21050;-73
2021/11/11 09:08:06;;;;;;;37.10;21.20;;;;;;;3.21;100.00;101908.48;1757737;80;21520;-73
2021/11/11 09:10:33;;;;;;;25.47;11.63;;;;;;;3.17;100.00;101909.56;1764011;80;21044;-70
2021/11/11 09:13:00;;;;;;;31.83;18.37;;;;;;;3.28;100.00;101899.20;1763069;80;21017;-71
2021/11/11 09:15:28;;;;;;;27.83;14.87;;;;;;;3.43;100.00;101897.53;1767854;80;21003;-70
2021/11/11 09:17:58;;;;;;;16.17;7.50;;;;;;;3.48;100.00;101903.52;1771644;80;21034;-71
2021/11/11 09:20:25;;;;;;;38.40;24.60;;;;;;;3.72;100.00;101895.14;1759814;80;21062;-68
2021/11/11 09:22:52;;;;;;;32.77;21.53;;;;;;;3.91;100.00;101909.30;1766553;80;21101;-71
2021/11/11 09:25:19;;;;;;;17.27;9.10;;;;;;;3.90;100.00;101911.57;1765248;80;20982;-71
2021/11/11 09:27:46;;;;;;;19.10;10.70;;;;;;;3.89;100.00;101909.83;1767905;80;21001;-70
2021/11/11 09:30:18;;;;;;;17.17;9.17;;;;;;;4.00;100.00;101902.55;1772799;80;21061;-70
2021/11/11 09:32:45;;;;;;;26.90;15.63;;;;;;;4.21;100.00;101889.81;1698062;83;21462;-69
2021/11/11 09:35:13;;;;;;;31.93;18.97;;;;;;;4.34;100.00;101890.02;1676821;84;21081;-71
2021/11/11 09:37:41;;;;;;;24.50;14.40;;;;;;;4.30;100.00;101883.08;1661265;84;21061;-71
2021/11/11 09:40:11;;;;;;;39.00;20.63;;;;;;;4.29;100.00;101870.66;1667137;84;21002;-72
2021/11/11 09:42:38;;;;;;;29.00;14.80;;;;;;;4.33;100.00;101868.19;1691468;83;21105;-71
2021/11/11 09:45:09;;;;;;;35.63;18.30;;;;;;;4.33;100.00;101872.21;1682595;85;21026;-70
2021/11/11 09:47:37;;;;;;;16.47;7.70;;;;;;;4.19;100.00;101860.92;1689543;83;21077;-71
2021/11/11 09:50:06;;;;;;;19.73;9.53;;;;;;;4.29;100.00;101866.16;1707277;83;21155;-70
2021/11/11 09:52:34;;;;;;;29.03;12.50;;;;;;;4.40;100.00;101864.70;1674150;83;21485;-71
2021/11/11 10:00:36;;;;;;;32.50;18.50;;;;;;;4.76;100.00;101857.70;1646319;86;21596;-72
2021/11/11 10:03:03;;;;;;;28.20;15.30;;;;;;;4.58;100.00;101842.20;1712160;82;21204;-73
2021/11/11 10:05:30;;;;;;;27.70;13.47;;;;;;;4.23;100.00;101845.06;1662546;82;21633;-78
2021/11/11 10:08:03;;;;;;;31.87;17.80;;;;;;;4.10;100.00;101835.52;1715432;82;21006;-74
2021/11/11 10:10:38;;;;;;;31.17;17.60;;;;;;;4.04;100.00;101837.67;1701900;82;21043;-74
2021/11/11 10:13:16;;;;;;;16.47;8.27;;;;;;;4.14;100.00;101837.55;1707041;82;21030;-74
2021/11/11 10:16:13;;;;;;;28.47;13.83;;;;;;;4.23;100.00;101846.89;1701849;81;21568;-72
2021/11/11 10:18:59;;;;;;;29.50;15.97;;;;;;;4.22;100.00;101846.03;1712748;82;21046;-73
2021/11/11 10:24:52;;;;;;;20.00;8.87;;;;;;;4.25;100.00;101844.53;1563379;89;21579;-73
2021/11/11 10:27:50;;;;;;;18.47;8.47;;;;;;;4.36;100.00;101839.91;1558324;90;21096;-73
2021/11/11 10:30:23;;;;;;;15.97;7.63;;;;;;;4.49;100.00;101822.17;1570117;90;21059;-73
2021/11/11 10:33:00;;;;;;;18.70;10.75;;;;;;;4.63;100.00;101825.88;1569090;89;21097;-73
2021/11/11 10:35:32;;;;;;;22.87;13.93;;;;;;;4.80;100.00;101817.73;1590674;85;21564;-74
2021/11/11 10:38:05;;;;;;;16.50;7.30;;;;;;;5.00;100.00;101819.70;1665390;85;21031;-73
2021/11/11 10:40:39;;;;;;;12.50;5.97;;;;;;;5.07;100.00;101820.58;1675076;84;21034;-72
2021/11/11 10:43:12;;;;;;;16.57;6.80;;;;;;;5.09;100.00;101817.80;1637553;86;21083;-75
2021/11/11 10:45:44;;;;;;;23.07;10.97;;;;;;;4.98;100.00;101807.73;1628406;86;21779;-77
2021/11/11 10:48:12;;;;;;;33.53;15.70;;;;;;;4.76;100.00;101802.75;1660961;84;21004;-75
2021/11/11 10:50:47;;;;;;;29.50;13.83;;;;;;;4.49;100.00;101803.91;1653799;84;21034;-75
2021/11/11 10:53:17;;;;;;;28.43;13.73;;;;;;;4.52;100.00;101794.36;1638674;87;21558;-74
2021/11/11 10:55:51;;;;;;;21.27;10.07;;;;;;;4.40;100.00;101789.22;1639008;86;21115;-74
2021/11/11 10:58:22;;;;;;;19.50;9.77;;;;;;;4.38;100.00;101786.63;1529401;91;21159;-73
2021/11/11 11:01:05;;;;;;;25.40;13.80;;;;;;;4.47;100.00;101771.84;1543907;90;21110;-71
2021/11/11 11:03:39;;;;;;;19.07;7.90;;;;;;;4.58;100.00;101765.00;1550988;91;21113;-71
2021/11/11 11:06:08;;;;;;;;;;;;;;;4.64;100.00;101759.27;1531595;92;21095;-72
2021/11/11 11:08:47;;;;;;;18.30;8.90;;;;;;;4.56;100.00;101750.34;1518190;92;20162;-75
2021/11/11 11:11:29;;;;;;;24.23;12.33;;;;;;;4.53;100.00;101749.18;1528701;92;21286;-74
2021/11/11 11:14:00;;;;;;;25.87;13.07;;;;;;;4.59;100.00;101753.34;1492718;94;21121;-71
2021/11/11 11:16:35;;;;;;;26.57;16.40;;;;;;;4.69;100.00;101748.69;1508818;93;21101;-72
2021/11/11 11:19:15;;;;;;;30.77;16.10;;;;;;;4.71;100.00;101731.14;1538641;92;21134;-73
2021/11/11 11:21:47;;;;;;;28.40;14.00;;;;;;;4.73;100.00;101729.27;1514888;93;21733;-71
2021/11/11 11:24:18;;;;;;;33.03;18.63;;;;;;;4.67;100.00;101733.63;1494769;94;21150;-71
2021/11/11 11:26:54;;;;;;;27.50;13.67;;;;;;;4.50;100.00;101729.30;1509480;93;21059;-70
2021/11/11 11:29:33;;;;;;;22.00;10.33;;;;;;;4.54;100.00;101725.47;1490338;95;21618;-72
2021/11/11 11:32:17;;;;;;;20.73;8.37;;;;;;;4.68;100.00;101719.30;1490147;95;21120;-70
2021/11/11 11:34:44;;;;;;;25.37;11.67;;;;;;;4.80;100.00;101714.54;1494195;95;21137;-73
2021/11/11 11:37:18;;;;;;;21.43;11.00;;;;;;;4.86;100.00;101709.28;1501839;95;21133;-75
2021/11/11 11:39:58;;;;;;;19.27;8.40;;;;;;;4.80;100.00;101704.27;1464027;96;21129;-72
2021/11/11 11:42:31;;;;;;;27.33;15.73;;;;;;;4.83;100.00;101696.05;1414462;99;21199;-76
2021/11/11 11:45:03;;;;;;;24.20;11.10;;;;;;;4.81;100.00;101684.57;1419977;100;21124;-74
2021/11/11 11:47:36;;;;;;;24.77;10.85;;;;;;;4.71;100.00;101689.61;1419642;100;21109;-74
2021/11/11 11:50:22;;;;;;;23.33;9.30;;;;;;;4.74;100.00;101691.63;1421807;99;21155;-76